Time;durP1;ratioP1;P1;durP2;ratioP2;P2;SDS_P1;SDS_P2;PMS_P1;PMS_P2;Temp;Humidity;BMP_temperature;BMP_pressure;BME280_temperature;BME280_humidity;BME280_pressure;Samples;Min_cycle;Max_cycle;Signal;HPM_P1;HPM_P2
2023/05/23 00:00:10;;;;;;;10.77;5.20;;;;;;;23.86;100.00;101722.72;5056143;28;20033;-54
2023/05/23 00:02:39;;;;;;;13.20;7.00;;;;;;;23.79;100.00;101716.69;5050577;28;20342;-56
2023/05/23 00:05:06;;;;;;;13.40;6.28;;;;;;;23.92;100.00;101718.13;5052224;28;20033;-56
2023/05/23 00:07:32;;;;;;;12.17;5.60;;;;;;;23.50;100.00;101722.47;5054096;28;20064;-51
2023/05/23 00:09:58;;;;;;;17.60;5.63;;;;;;;23.56;100.00;101715.16;5055049;28;20040;-54
2023/05/23 00:12:24;;;;;;;16.33;7.47;;;;;;;23.27;100.00;101710.81;5052250;28;20033;-54
2023/05/23 00:14:52;;;;;;;13.95;7.10;;;;;;;23.18;100.00;101718.66;5050769;28;20029;-56
2023/05/23 00:17:18;;;;;;;10.43;6.43;;;;;;;23.66;100.00;101708.94;5050873;28;20025;-54
2023/05/23 00:19:44;;;;;;;15.45;6.85;;;;;;;23.38;100.00;101719.13;5057514;28;20039;-54
2023/05/23 00:22:11;;;;;;;11.65;5.68;;;;;;;23.08;100.00;101715.03;5054683;28;20052;-51
2023/05/23 00:24:37;;;;;;;14.23;6.87;;;;;;;23.42;100.00;101722.97;5052853;28;20040;-55
2023/05/23 00:27:03;;;;;;;10.77;5.72;;;;;;;23.47;100.00;101720.25;5052479;28;20041;-51
2023/05/23 00:29:28;;;;;;;15.27;6.93;;;;;;;23.02;100.00;101723.13;5059489;28;20044;-53
2023/05/23 00:31:54;;;;;;;10.23;5.37;;;;;;;23.14;100.00;101735.81;5055031;28;20037;-56
2023/05/23 00:34:19;;;;;;;17.80;7.97;;;;;;;23.39;100.00;101742.59;5037655;28;20121;-57
2023/05/23 00:36:49;;;;;;;15.35;7.95;;;;;;;23.08;100.00;101734.13;5035459;28;20029;-51
2023/05/23 00:39:18;;;;;;;16.33;6.77;;;;;;;22.97;100.00;101730.47;5055031;28;20092;-50
2023/05/23 00:41:46;;;;;;;15.17;8.00;;;;;;;23.34;100.00;101740.63;5035106;28;20038;-53
2023/05/23 00:44:12;;;;;;;17.83;8.00;;;;;;;23.24;100.00;101745.97;5038036;28;20100;-50
2023/05/23 00:46:38;;;;;;;16.38;6.65;;;;;;;22.88;100.00;101746.47;5038344;28;20278;-50
2023/05/23 00:49:03;;;;;;;16.90;6.93;;;;;;;23.01;100.00;101754.22;5041128;28;20045;-51
2023/05/23 00:51:30;;;;;;;18.23;9.13;;;;;;;22.78;100.00;101747.97;5056931;28;20037;-55
2023/05/23 00:53:56;;;;;;;16.57;6.80;;;;;;;22.85;100.00;101745.06;5059191;28;20038;-51
2023/05/23 00:56:21;;;;;;;17.20;6.30;;;;;;;22.97;100.00;101750.38;5055868;28;20278;-52
2023/05/23 00:58:48;;;;;;;;;;;;;;;23.15;100.00;101753.81;5041551;28;20128;-54
2023/05/23 01:01:14;;;;;;;17.83;7.30;;;;;;;23.18;100.00;101750.56;5058332;28;19921;-53
2023/05/23 01:03:40;;;;;;;16.20;5.97;;;;;;;23.17;100.00;101743.47;5056613;28;20093;-51
2023/05/23 01:06:06;;;;;;;10.30;5.30;;;;;;;23.20;100.00;101749.22;5040753;28;20293;-53
2023/05/23 01:08:31;;;;;;;10.70;5.53;;;;;;;23.15;100.00;101759.28;5056190;28;20045;-53
2023/05/23 01:11:02;;;;;;;13.35;6.70;;;;;;;22.78;100.00;101750.72;5059673;28;20045;-50
2023/05/23 01:13:46;;;;;;;10.90;5.03;;;;;;;22.91;100.00;101763.13;5035467;28;20033;-53
2023/05/23 01:16:19;;;;;;;11.67;5.50;;;;;;;22.93;100.00;101754.69;5034974;28;20289;-52
2023/05/23 01:18:57;;;;;;;9.73;4.50;;;;;;;22.73;100.00;101756.13;5036566;28;20271;-54
2023/05/23 01:21:23;;;;;;;;;;;;;;;23.02;100.00;101761.31;5054977;28;20283;-54
2023/05/23 01:24:12;;;;;;;15.10;6.57;;;;;;;22.85;100.00;101760.63;5038893;28;19928;-51
2023/05/23 01:26:51;;;;;;;11.20;5.63;;;;;;;23.14;100.00;101763.09;5060917;28;20048;-53
2023/05/23 01:29:23;;;;;;;12.93;5.73;;;;;;;22.73;100.00;101753.38;5038937;28;20297;-53
2023/05/23 01:31:53;;;;;;;14.20;6.03;;;;;;;22.98;100.00;101762.91;5041059;28;20275;-53
2023/05/23 01:34:20;;;;;;;12.97;6.13;;;;;;;23.00;100.00;101765.41;5055740;28;20549;-54
2023/05/23 01:36:49;;;;;;;15.50;6.93;;;;;;;22.59;100.00;101752.13;5056990;28;20281;-57
2023/05/23 01:39:15;;;;;;;11.43;5.50;;;;;;;22.85;100.00;101757.88;5037552;28;20282;-54
2023/05/23 01:41:41;;;;;;;13.00;4.88;;;;;;;22.84;100.00;101757.06;5036253;28;20331;-55
2023/05/23 01:44:07;;;;;;;17.30;7.25;;;;;;;23.19;100.00;101758.50;5055489;28;20037;-55
2023/05/23 01:46:38;;;;;;;12.32;5.50;;;;;;;22.77;100.00;101756.44;5057376;28;20034;-50
2023/05/23 01:49:07;;;;;;;16.30;6.00;;;;;;;22.77;100.00;101759.97;5036546;28;20109;-53
2023/05/23 01:51:33;;;;;;;14.73;7.23;;;;;;;22.80;100.00;101763.25;5037746;28;20313;-50
2023/05/23 01:53:59;;;;;;;16.08;6.90;;;;;;;22.57;100.00;101755.13;5036165;28;20317;-50
2023/05/23 01:56:27;;;;;;;13.23;6.33;;;;;;;22.66;100.00;101760.94;5037798;28;20032;-55
2023/05/23 01:58:53;;;;;;;19.50;7.73;;;;;;;22.66;100.00;101771.84;5039760;28;20693;-55
2023/05/23 02:01:19;;;;;;;16.07;7.63;;;;;;;22.70;100.00;101772.16;5039820;28;20289;-57
2023/05/23 02:03:45;;;;;;;15.15;6.18;;;;;;;22.62;100.00;101771.53;5039370;28;20266;-57
2023/05/23 02:06:11;;;;;;;8.30;4.15;;;;;;;22.63;100.00;101775.91;5039082;28;20044;-50
2023/05/23 02:08:36;;;;;;;13.98;7.28;;;;;;;22.32;100.00;101782.81;5037317;28;20044;-51
2023/05/23 02:11:02;;;;;;;14.77;7.85;;;;;;;22.63;100.00;101791.44;5039060;28;20104;-53
2023/05/23 02:13:27;;;;;;;14.52;6.43;;;;;;;22.00;100.00;101780.75;5037934;28;20029;-55
2023/05/23 02:15:53;;;;;;;20.15;7.78;;;;;;;22.57;100.00;101787.00;5039141;28;20037;-51
2023/05/23 02:18:19;;;;;;;17.30;7.10;;;;;;;22.27;100.00;101788.22;5039552;28;20093;-50
2023/05/23 02:20:48;;;;;;;19.93;8.37;;;;;;;22.02;100.00;101784.06;5039142;28;20255;-51
2023/05/23 02:23:15;;;;;;;17.63;7.13;;;;;;;22.30;100.00;101783.09;5056956;28;20310;-52
2023/05/23 02:25:40;;;;;;;14.07;6.30;;;;;;;22.02;100.00;101781.34;5052146;28;20067;-53
2023/05/23 02:28:06;;;;;;;16.70;6.00;;;;;;;22.09;100.00;101779.25;5054656;28;20029;-55
2023/05/23 02:30:32;;;;;;;12.85;5.45;;;;;;;21.97;100.00;101787.50;5054953;28;20037;-50
2023/05/23 02:32:57;;;;;;;10.40;4.50;;;;;;;22.13;100.00;101793.19;5057961;28;20025;-50
2023/05/23 02:35:23;;;;;;;10.40;4.97;;;;;;;22.10;100.00;101794.50;5037366;28;20092;-52
2023/05/23 02:37:49;;;;;;;11.00;5.82;;;;;;;22.45;100.00;101793.38;5036808;28;20481;-54
2023/05/23 02:40:15;;;;;;;9.23;4.47;;;;;;;22.34;100.00;101789.69;5040403;28;20053;-55
2023/05/23 02:42:40;;;;;;;10.63;3.42;;;;;;;22.23;100.00;101787.88;5037330;28;20041;-53
2023/05/23 02:45:06;;;;;;;12.27;5.32;;;;;;;22.08;100.00;101796.66;5056115;28;20025;-54
2023/05/23 02:47:32;;;;;;;9.30;5.27;;;;;;;22.12;100.00;101792.34;5037837;28;20073;-56
2023/05/23 02:49:57;;;;;;;11.13;4.80;;;;;;;21.88;100.00;101808.09;5037454;28;20286;-57
2023/05/23 02:52:24;;;;;;;6.73;3.60;;;;;;;21.81;100.00;101797.34;5037210;28;20090;-49
2023/05/23 02:54:50;;;;;;;7.67;3.10;;;;;;;22.21;100.00;101798.22;5038777;28;20037;-56
2023/05/23 02:57:16;;;;;;;11.82;5.53;;;;;;;22.46;100.00;101796.91;5039481;28;20307;-53
2023/05/23 02:59:42;;;;;;;9.13;4.50;;;;;;;22.56;100.00;101802.53;5037228;28;20041;-52
2023/05/23 03:02:07;;;;;;;14.75;6.50;;;;;;;22.12;100.00;101792.34;5038949;28;20061;-51
2023/05/23 03:04:33;;;;;;;8.00;4.35;;;;;;;22.35;100.00;101795.94;5038596;28;20056;-50
2023/05/23 03:06:58;;;;;;;15.48;5.30;;;;;;;22.06;100.00;101807.81;5055928;28;20041;-54
2023/05/23 03:09:24;;;;;;;13.18;6.00;;;;;;;22.13;100.00;101804.91;5032902;28;20061;-53
2023/05/23 03:11:51;;;;;;;12.43;5.67;;;;;;;21.86;100.00;101794.72;5037395;28;20085;-54
2023/05/23 03:14:17;;;;;;;7.65;4.07;;;;;;;22.24;100.00;101794.97;5035907;28;20290;-56
2023/05/23 03:16:42;;;;;;;11.95;3.90;;;;;;;22.40;100.00;101801.47;5039205;28;20061;-53
2023/05/23 03:19:07;;;;;;;14.50;5.53;;;;;;;22.28;100.00;101796.16;5035302;28;20040;-50
2023/05/23 03:21:34;;;;;;;9.05;4.55;;;;;;;22.46;100.00;101802.34;5037612;28;20476;-51
2023/05/23 03:24:00;;;;;;;11.40;4.90;;;;;;;22.45;100.00;101803.44;5035085;28;20042;-53
2023/05/23 03:26:28;;;;;;;12.60;4.87;;;;;;;22.61;100.00;101804.50;5034896;28;20310;-54
2023/05/23 03:28:55;;;;;;;9.93;4.57;;;;;;;22.53;100.00;101803.03;5037686;28;20287;-54
2023/05/23 03:31:20;;;;;;;10.40;4.23;;;;;;;22.40;100.00;101797.91;5037675;28;20275;-53
2023/05/23 03:33:46;;;;;;;12.38;4.03;;;;;;;22.38;100.00;101811.81;5033134;28;20341;-55
2023/05/23 03:36:12;;;;;;;9.02;4.32;;;;;;;22.72;100.00;101811.72;5036737;28;20038;-54
2023/05/23 03:38:37;;;;;;;10.80;3.90;;;;;;;22.51;100.00;101807.09;5034064;28;20030;-55
2023/05/23 03:41:02;;;;;;;13.25;4.95;;;;;;;22.63;100.00;101813.25;5034266;28;20040;-54
2023/05/23 03:43:28;;;;;;;16.17;6.00;;;;;;;22.63;100.00;101808.59;5035696;28;20038;-56
2023/05/23 03:45:53;;;;;;;13.80;5.72;;;;;;;22.53;100.00;101810.38;5033834;28;20040;-54
2023/05/23 03:48:19;;;;;;;10.40;4.40;;;;;;;22.57;100.00;101808.78;5034496;28;20045;-54
2023/05/23 03:50:46;;;;;;;16.07;5.90;;;;;;;22.83;100.00;101804.47;5037861;28;20034;-55
2023/05/23 03:53:11;;;;;;;15.25;6.35;;;;;;;22.27;100.00;101826.34;5039035;28;20302;-56
2023/05/23 03:55:38;;;;;;;17.75;5.60;;;;;;;21.86;100.00;101821.94;5037168;28;20044;-49
2023/05/23 03:58:03;;;;;;;25.75;8.18;;;;;;;21.63;100.00;101822.91;5035075;28;20038;-56
2023/05/23 04:00:29;;;;;;;18.08;6.70;;;;;;;22.11;100.00;101823.41;5034595;28;20057;-54
2023/05/23 04:02:57;;;;;;;22.70;7.03;;;;;;;22.30;100.00;101834.88;5037098;28;20061;-52
2023/05/23 04:05:23;;;;;;;11.75;5.25;;;;;;;22.23;100.00;101831.47;5035746;28;20267;-54
2023/05/23 04:07:50;;;;;;;19.70;6.50;;;;;;;22.11;100.00;101833.47;5036845;28;20038;-55
2023/05/23 04:10:15;;;;;;;22.77;6.97;;;;;;;22.02;100.00;101842.06;5034386;28;20053;-53
2023/05/23 04:12:42;;;;;;;17.38;6.47;;;;;;;22.07;100.00;101844.03;5040053;28;20267;-52
2023/05/23 04:15:12;;;;;;;20.50;6.70;;;;;;;22.03;100.00;101849.19;5037645;28;20135;-53
2023/05/23 04:17:48;;;;;;;11.70;5.33;;;;;;;21.90;100.00;101844.06;5029974;28;20271;-55
2023/05/23 04:20:14;;;;;;;15.68;5.88;;;;;;;21.48;100.00;101845.22;5040542;28;20279;-51
2023/05/23 04:22:40;;;;;;;15.73;6.90;;;;;;;22.03;100.00;101843.72;5040098;28;20037;-53
2023/05/23 04:25:08;;;;;;;18.27;7.40;;;;;;;22.23;100.00;101852.47;5036632;28;20026;-56
2023/05/23 04:27:39;;;;;;;18.53;6.43;;;;;;;22.53;100.00;101865.72;5038623;28;20286;-53
2023/05/23 04:30:09;;;;;;;20.40;6.97;;;;;;;22.58;100.00;101857.63;5041260;28;20278;-55
2023/05/23 04:32:37;;;;;;;18.83;6.10;;;;;;;22.46;100.00;101867.75;5040407;28;20260;-52
2023/05/23 04:35:03;;;;;;;20.58;7.20;;;;;;;22.61;100.00;101869.94;5036934;28;20289;-53
2023/05/23 04:37:31;;;;;;;18.90;7.13;;;;;;;21.91;100.00;101871.06;5039938;28;20037;-53
2023/05/23 04:40:01;;;;;;;29.10;8.90;;;;;;;22.08;100.00;101866.66;5037214;28;20263;-53
2023/05/23 04:42:48;;;;;;;18.47;6.53;;;;;;;22.05;100.00;101871.53;5014217;28;20291;-56
2023/05/23 04:45:30;;;;;;;24.20;7.10;;;;;;;22.22;100.00;101878.06;5037092;28;20290;-51
2023/05/23 04:48:11;;;;;;;22.83;7.90;;;;;;;21.58;100.00;101872.63;5036788;28;20356;-50
2023/05/23 04:50:41;;;;;;;25.60;7.53;;;;;;;21.96;100.00;101880.38;5035973;28;20277;-53
2023/05/23 04:53:07;;;;;;;;;;;;;;;21.69;100.00;101881.00;5039133;28;20331;-53
2023/05/23 04:55:33;;;;;;;13.27;4.67;;;;;;;21.90;100.00;101885.72;5038798;28;19924;-53
2023/05/23 04:57:59;;;;;;;25.07;7.73;;;;;;;22.02;100.00;101895.72;5036105;28;20275;-53
2023/05/23 05:00:25;;;;;;;22.38;6.18;;;;;;;22.12;100.00;101895.88;5035742;28;20291;-51
2023/05/23 05:02:52;;;;;;;18.70;5.33;;;;;;;21.88;100.00;101896.03;5035991;28;20072;-51
2023/05/23 05:05:17;;;;;;;17.52;5.68;;;;;;;21.75;100.00;101897.16;5035814;28;20304;-50
2023/05/23 05:07:43;;;;;;;20.50;5.68;;;;;;;21.86;100.00;101906.34;5042994;28;20072;-50
2023/05/23 05:10:15;;;;;;;16.20;4.43;;;;;;;22.04;100.00;101904.47;5044141;28;20074;-50
2023/05/23 05:12:51;;;;;;;22.37;6.17;;;;;;;22.09;100.00;101909.97;5040739;28;20278;-53
2023/05/23 05:15:18;;;;;;;16.55;6.90;;;;;;;22.64;100.00;101915.75;5036076;28;20267;-54
2023/05/23 05:17:47;;;;;;;25.17;5.57;;;;;;;22.51;100.00;101918.84;5041384;28;20034;-56
2023/05/23 05:20:16;;;;;;;21.13;5.47;;;;;;;22.29;100.00;101925.00;5038922;28;20278;-56
2023/05/23 05:22:42;;;;;;;10.57;3.83;;;;;;;22.31;100.00;101925.59;5036158;28;20284;-57
2023/05/23 05:25:11;;;;;;;11.10;3.90;;;;;;;22.27;100.00;101932.63;5036781;28;20792;-56
2023/05/23 05:27:36;;;;;;;15.90;4.55;;;;;;;22.47;100.00;101930.25;5036056;28;20259;-55
2023/05/23 05:30:08;;;;;;;15.40;3.87;;;;;;;22.30;100.00;101930.22;5040370;28;20060;-54
2023/05/23 05:32:45;;;;;;;9.27;3.03;;;;;;;22.55;100.00;101939.06;5039982;28;20266;-54
2023/05/23 05:35:12;;;;;;;10.27;4.03;;;;;;;22.45;100.00;101940.53;5041170;28;20368;-56
2023/05/23 05:37:39;;;;;;;8.63;3.43;;;;;;;22.18;100.00;101937.66;5040541;28;20274;-55
2023/05/23 05:40:07;;;;;;;11.40;3.60;;;;;;;22.32;100.00;101943.59;5042687;28;20280;-52
2023/05/23 05:42:36;;;;;;;8.67;3.37;;;;;;;22.00;100.00;101950.41;5056363;28;20037;-55
2023/05/23 05:45:02;;;;;;;15.15;5.45;;;;;;;22.30;100.00;101945.75;5041341;28;20270;-55
2023/05/23 05:47:30;;;;;;;11.30;3.97;;;;;;;22.61;100.00;101960.69;5038853;28;20100;-54
2023/05/23 05:49:55;;;;;;;14.02;5.18;;;;;;;22.44;100.00;101962.56;5041695;28;20262;-51
2023/05/23 05:52:21;;;;;;;17.95;6.10;;;;;;;22.10;100.00;101968.84;5040420;28;20044;-53
2023/05/23 05:54:47;;;;;;;11.88;4.57;;;;;;;21.91;100.00;101974.53;5060340;28;20036;-56
2023/05/23 05:57:13;;;;;;;7.95;3.28;;;;;;;22.10;100.00;101963.38;5038031;28;20045;-53
2023/05/23 05:59:38;;;;;;;17.13;4.70;;;;;;;21.35;100.00;101966.88;5061105;28;20072;-53
2023/05/23 06:02:04;;;;;;;13.33;3.57;;;;;;;21.46;100.00;101975.28;5054565;28;20279;-52
2023/05/23 06:04:30;;;;;;;12.15;3.70;;;;;;;22.08;100.00;101972.91;5058190;28;20044;-52
2023/05/23 06:06:56;;;;;;;13.93;4.00;;;;;;;21.88;100.00;101966.00;5035731;28;20021;-54
2023/05/23 06:09:22;;;;;;;12.77;3.97;;;;;;;22.30;100.00;101981.16;5032322;28;20279;-56
2023/05/23 06:11:48;;;;;;;8.60;3.63;;;;;;;22.52;89.67;101983.16;5036331;28;20021;-53
2023/05/23 06:14:14;;;;;;;7.93;2.90;;;;;;;22.29;91.11;101988.53;5034324;28;20038;-56
2023/05/23 06:16:42;;;;;;;13.67;3.87;;;;;;;22.88;89.10;101989.19;5030713;28;20049;-55
2023/05/23 06:19:08;;;;;;;8.82;3.53;;;;;;;22.83;89.63;101991.81;5030712;28;20267;-52
2023/05/23 06:21:33;;;;;;;9.73;3.40;;;;;;;22.83;87.37;101989.06;5033945;28;20049;-56
2023/05/23 06:24:00;;;;;;;16.83;3.87;;;;;;;23.09;83.37;101994.91;5036208;28;20029;-55
2023/05/23 06:26:25;;;;;;;10.50;3.47;;;;;;;22.91;88.73;101988.66;5034179;28;20306;-54
2023/05/23 06:28:51;;;;;;;11.07;3.78;;;;;;;22.69;86.21;101991.31;5034370;28;20030;-55
2023/05/23 06:31:17;;;;;;;14.10;3.95;;;;;;;22.42;84.53;101995.53;5035145;28;20088;-57
2023/05/23 06:33:42;;;;;;;11.88;4.32;;;;;;;22.44;89.24;101987.94;5035130;28;20101;-56
2023/05/23 06:36:09;;;;;;;10.00;3.70;;;;;;;22.63;84.77;101993.19;5033766;28;20085;-56
2023/05/23 06:38:35;;;;;;;13.65;4.18;;;;;;;22.72;83.64;101996.28;5037117;28;20263;-53
2023/05/23 06:41:02;;;;;;;10.82;3.58;;;;;;;23.03;82.11;102002.19;5040225;28;20042;-53
2023/05/23 06:43:29;;;;;;;11.07;4.27;;;;;;;22.76;84.57;101998.25;5033294;28;20029;-54
2023/05/23 06:46:10;;;;;;;11.90;4.43;;;;;;;22.74;82.19;102005.88;5035928;28;20287;-55
2023/05/23 06:48:36;;;;;;;11.30;4.93;;;;;;;22.96;80.19;102012.47;5036094;28;20347;-53
2023/05/23 06:51:02;;;;;;;10.35;3.88;;;;;;;22.49;81.49;102009.03;5036256;28;20072;-50
2023/05/23 06:53:28;;;;;;;11.40;4.20;;;;;;;22.66;82.88;102017.22;5036248;28;20041;-54
2023/05/23 06:55:54;;;;;;;14.23;4.00;;;;;;;22.44;82.36;102017.09;5034760;28;20038;-54
2023/05/23 06:58:21;;;;;;;11.73;3.53;;;;;;;22.35;86.54;102013.94;5037496;28;20101;-53
2023/05/23 07:00:47;;;;;;;15.23;5.03;;;;;;;22.57;84.28;102024.13;5035522;28;20044;-56
2023/05/23 07:03:25;;;;;;;12.80;4.40;;;;;;;22.80;80.96;102031.31;5033619;28;20401;-55
2023/05/23 07:05:52;;;;;;;12.90;4.50;;;;;;;22.62;80.49;102027.78;5033630;28;20060;-56
2023/05/23 07:08:20;;;;;;;11.77;3.87;;;;;;;22.40;83.05;102026.84;5030661;28;20046;-57
2023/05/23 07:10:57;;;;;;;13.05;4.38;;;;;;;22.34;84.38;102023.19;5020110;28;20026;-55
2023/05/23 07:13:29;;;;;;;9.17;4.07;;;;;;;21.88;88.17;102025.91;5016043;28;20038;-54
2023/05/23 07:15:55;;;;;;;14.63;3.97;;;;;;;21.98;89.14;102022.56;5021738;28;20275;-54
2023/05/23 07:18:22;;;;;;;11.27;4.15;;;;;;;22.15;88.49;102036.22;5016208;28;20110;-51
2023/05/23 07:20:48;;;;;;;13.20;4.80;;;;;;;22.14;84.96;102026.38;5021145;28;20049;-52
2023/05/23 07:23:18;;;;;;;13.40;3.87;;;;;;;22.44;87.12;102034.28;5018114;28;20284;-50
2023/05/23 07:25:45;;;;;;;13.40;4.67;;;;;;;22.64;80.92;102043.91;5018973;28;20276;-52
2023/05/23 07:28:21;;;;;;;;;;;;;;;22.82;78.87;102039.25;5019239;28;20343;-49
2023/05/23 07:30:47;;;;;;;6.13;3.10;;;;;;;22.55;89.02;102035.31;5023739;28;19913;-53
2023/05/23 07:33:13;;;;;;;9.98;3.40;;;;;;;22.39;89.86;102044.25;5017801;28;20058;-52
2023/05/23 07:35:40;;;;;;;12.20;4.07;;;;;;;22.59;85.94;102046.50;5021205;28;20077;-55
2023/05/23 07:38:06;;;;;;;7.63;3.70;;;;;;;22.70;82.80;102048.34;5017716;28;20271;-50
2023/05/23 07:40:32;;;;;;;11.50;3.70;;;;;;;22.42;84.28;102047.31;5006903;28;20276;-51
2023/05/23 07:42:59;;;;;;;6.82;3.08;;;;;;;22.67;86.05;102048.84;5016668;28;20045;-52
2023/05/23 07:45:24;;;;;;;10.40;3.37;;;;;;;22.76;87.96;102041.91;5023336;28;20030;-51
2023/05/23 07:47:51;;;;;;;7.03;3.00;;;;;;;22.74;88.01;102057.69;5021128;28;20316;-51
2023/05/23 07:50:17;;;;;;;11.60;3.40;;;;;;;22.71;86.40;102058.19;5023324;28;20042;-49
2023/05/23 07:52:43;;;;;;;8.32;3.60;;;;;;;22.69;88.86;102046.69;5013526;28;20279;-53
2023/05/23 07:55:12;;;;;;;10.17;3.30;;;;;;;22.17;90.61;102059.44;5018549;28;20038;-51
2023/05/23 07:57:38;;;;;;;10.38;3.45;;;;;;;22.55;90.39;102061.72;5014229;28;20094;-53
2023/05/23 08:00:05;;;;;;;8.50;2.40;;;;;;;22.54;90.26;102063.63;5014333;28;20030;-49
2023/05/23 08:02:40;;;;;;;6.25;2.78;;;;;;;23.01;87.54;102070.63;5018817;28;20067;-50
2023/05/23 08:05:10;;;;;;;6.37;2.10;;;;;;;23.01;86.92;102067.91;5017422;28;20038;-48
2023/05/23 08:07:36;;;;;;;11.43;2.75;;;;;;;22.61;86.73;102060.75;5019710;28;20515;-50
2023/05/23 08:10:04;;;;;;;7.40;2.17;;;;;;;22.97;79.97;102060.50;5037873;28;20128;-51
2023/05/23 08:12:29;;;;;;;14.77;3.27;;;;;;;23.62;75.30;102075.31;5035338;28;20275;-52
2023/05/23 08:15:05;;;;;;;8.20;2.97;;;;;;;23.08;78.85;102080.56;5038117;28;20028;-48
2023/05/23 08:17:38;;;;;;;8.80;2.20;;;;;;;23.13;73.00;102073.25;5037112;28;20028;-52
2023/05/23 08:20:04;;;;;;;18.40;3.10;;;;;;;23.32;73.97;102079.31;5035723;28;20033;-52
2023/05/23 08:22:30;;;;;;;;;;;;;;;23.25;74.78;102077.81;5033602;28;20033;-52
2023/05/23 08:24:56;;;;;;;14.37;2.83;;;;;;;23.38;69.49;102091.09;5036485;28;19913;-50
2023/05/23 08:27:25;;;;;;;9.83;2.63;;;;;;;23.56;69.70;102086.44;5035417;28;20112;-52
2023/05/23 08:29:55;;;;;;;8.77;3.47;;;;;;;23.84;72.99;102088.16;5036416;28;20025;-57
2023/05/23 08:32:21;;;;;;;10.43;2.72;;;;;;;24.09;64.31;102097.75;5034885;28;20091;-55
2023/05/23 08:34:48;;;;;;;12.55;2.78;;;;;;;24.26;65.10;102099.56;5035507;28;20034;-56
2023/05/23 08:37:14;;;;;;;14.43;2.67;;;;;;;23.97;66.50;102103.31;5037524;28;20049;-53
2023/05/23 08:39:40;;;;;;;10.38;3.13;;;;;;;24.30;65.88;102101.50;5037073;28;20056;-54
2023/05/23 08:42:34;;;;;;;8.53;2.43;;;;;;;24.60;63.73;102104.78;5038394;28;20412;-53
2023/05/23 08:45:00;;;;;;;12.88;3.35;;;;;;;24.37;63.40;102106.75;5037969;28;20032;-54
2023/05/23 08:47:28;;;;;;;13.68;3.42;;;;;;;24.26;64.88;102102.28;5026662;28;20056;-53
2023/05/23 08:50:00;;;;;;;11.23;3.10;;;;;;;24.30;66.25;102101.50;5038443;28;20025;-50
2023/05/23 08:52:28;;;;;;;8.90;2.37;;;;;;;24.09;69.02;102105.94;5036674;28;20022;-53
2023/05/23 08:54:59;;;;;;;15.90;4.07;;;;;;;23.87;64.65;102109.47;5039582;28;20060;-53
2023/05/23 08:57:25;;;;;;;15.37;2.87;;;;;;;23.97;66.25;102095.13;5033997;28;20093;-54
2023/05/23 08:59:56;;;;;;;7.67;2.33;;;;;;;24.36;65.77;102112.50;5037445;28;20048;-51
2023/05/23 09:02:23;;;;;;;15.23;3.10;;;;;;;24.12;61.57;102116.34;5036961;28;20025;-52
2023/05/23 09:04:53;;;;;;;12.47;3.37;;;;;;;24.11;63.29;102106.50;5037268;28;20105;-52
2023/05/23 09:07:24;;;;;;;6.13;1.70;;;;;;;24.35;68.89;102122.59;5038551;28;20026;-51
2023/05/23 09:09:51;;;;;;;13.07;2.20;;;;;;;24.69;62.50;102125.13;5040458;28;20033;-53
2023/05/23 09:12:17;;;;;;;14.80;2.63;;;;;;;24.66;62.79;102125.63;5038513;28;20097;-53
2023/05/23 09:14:45;;;;;;;13.00;2.93;;;;;;;25.20;61.65;102129.38;5040755;28;20079;-51
2023/05/23 09:17:16;;;;;;;13.37;2.97;;;;;;;24.86;60.38;102124.19;5056138;28;20041;-55
2023/05/23 09:19:42;;;;;;;14.00;2.93;;;;;;;24.89;57.48;102135.44;5059838;28;20029;-54
2023/05/23 09:22:24;;;;;;;12.80;2.43;;;;;;;25.45;55.82;102136.06;5038078;28;20026;-52
2023/05/23 09:24:59;;;;;;;16.93;3.00;;;;;;;24.97;57.98;102130.56;5040245;28;20101;-55
2023/05/23 09:27:25;;;;;;;9.90;2.40;;;;;;;25.19;59.76;102139.47;5040419;28;20033;-51
2023/05/23 09:29:51;;;;;;;10.13;2.30;;;;;;;25.39;59.87;102123.47;5038824;28;20034;-52
2023/05/23 09:32:19;;;;;;;10.83;3.00;;;;;;;25.53;56.04;102127.38;5042026;28;20030;-52
2023/05/23 09:34:58;;;;;;;16.00;3.30;;;;;;;25.92;55.70;102128.91;5057562;28;20051;-57
2023/05/23 09:37:48;;;;;;;10.70;2.67;;;;;;;26.54;54.02;102134.56;5035925;28;20040;-53
2023/05/23 09:40:14;;;;;;;13.33;2.63;;;;;;;27.00;53.66;102142.03;5058234;28;20132;-57
2023/05/23 09:42:47;;;;;;;7.67;2.47;;;;;;;26.98;55.76;102137.91;5038402;28;20029;-55
2023/05/23 09:45:14;;;;;;;12.87;2.77;;;;;;;26.83;51.35;102144.19;5057619;28;20067;-50
2023/05/23 09:47:50;;;;;;;10.60;2.07;;;;;;;26.98;50.85;102149.69;5059088;28;20074;-55
2023/05/23 09:50:16;;;;;;;7.28;2.15;;;;;;;26.78;52.07;102145.00;5036651;28;20029;-53
2023/05/23 09:52:42;;;;;;;10.10;2.78;;;;;;;28.35;47.46;102144.31;5039773;28;20037;-52
2023/05/23 09:55:08;;;;;;;13.65;3.05;;;;;;;28.94;45.96;102157.34;5041280;28;20041;-51
2023/05/23 09:57:36;;;;;;;;;;;;;;;29.86;44.10;102150.06;5040747;28;20045;-54
2023/05/23 10:00:05;;;;;;;9.37;2.97;;;;;;;30.41;41.93;102148.75;5057297;28;19984;-55
2023/05/23 10:02:49;;;;;;;8.07;1.90;;;;;;;30.37;41.43;102149.66;5055076;28;20096;-55
2023/05/23 10:05:30;;;;;;;23.35;4.35;;;;;;;29.51;44.13;102149.38;5058573;28;20092;-55
2023/05/23 10:07:59;;;;;;;10.40;2.80;;;;;;;28.88;43.15;102162.09;5055938;28;20064;-55
2023/05/23 10:10:27;;;;;;;11.03;2.90;;;;;;;28.46;44.00;102159.66;5059907;28;20097;-56
2023/05/23 10:12:56;;;;;;;9.47;2.60;;;;;;;28.55;45.48;102159.88;5059804;28;20025;-52
2023/05/23 10:15:26;;;;;;;6.13;1.70;;;;;;;27.82;49.26;102155.84;5057509;28;20029;-50
2023/05/23 10:18:01;;;;;;;10.17;2.63;;;;;;;27.94;44.76;102152.78;5062429;28;20033;-52
2023/05/23 10:20:30;;;;;;;15.40;2.80;;;;;;;27.98;45.01;102157.41;5053597;28;20033;-52
2023/05/23 10:22:59;;;;;;;10.93;2.33;;;;;;;29.57;42.49;102170.25;5055918;28;20037;-54
2023/05/23 10:25:25;;;;;;;11.10;3.03;;;;;;;30.35;40.13;102165.69;5060652;28;20028;-52
2023/05/23 10:27:57;;;;;;;10.13;3.15;;;;;;;30.50;41.03;102168.19;5059452;28;20033;-50
2023/05/23 10:30:26;;;;;;;14.75;2.80;;;;;;;29.91;41.16;102163.75;5054884;28;20096;-50
2023/05/23 10:32:57;;;;;;;11.45;2.60;;;;;;;30.27;41.07;102164.44;5054522;28;20021;-54
2023/05/23 10:35:42;;;;;;;8.75;2.47;;;;;;;31.32;39.26;102177.06;5054722;28;20044;-52
2023/05/23 10:38:25;;;;;;;10.77;2.60;;;;;;;32.87;36.51;102180.34;5056027;28;20084;-51
2023/05/23 10:40:55;;;;;;;10.50;3.17;;;;;;;32.97;35.32;102179.31;5055178;28;20097;-55
2023/05/23 10:43:56;;;;;;;6.72;1.75;;;;;;;32.37;37.69;102178.53;5054802;28;20037;-52
2023/05/23 10:46:22;;;;;;;7.15;1.90;;;;;;;31.69;39.62;102179.94;5041235;28;20137;-54
2023/05/23 10:48:52;;;;;;;5.45;1.92;;;;;;;31.43;39.45;102171.34;5057591;28;20033;-53
2023/05/23 10:51:19;;;;;;;11.02;2.72;;;;;;;31.59;36.77;102189.25;5032737;28;20025;-53
2023/05/23 10:53:45;;;;;;;6.82;2.10;;;;;;;32.05;37.15;102181.16;5054146;28;20029;-52
2023/05/23 10:56:23;;;;;;;6.28;1.90;;;;;;;33.36;34.45;102190.72;5056191;28;20044;-52
2023/05/23 10:58:53;;;;;;;13.98;2.70;;;;;;;32.67;34.46;102188.03;5056496;28;20029;-49
2023/05/23 11:01:19;;;;;;;7.00;2.47;;;;;;;33.41;36.09;102191.41;5054228;28;20063;-50
2023/05/23 11:03:44;;;;;;;10.45;2.60;;;;;;;32.63;35.63;102192.59;5060472;28;20030;-52
2023/05/23 11:06:32;;;;;;;6.78;1.80;;;;;;;31.57;38.83;102180.44;5058745;28;20052;-55
2023/05/23 11:09:02;;;;;;;11.80;2.55;;;;;;;30.93;39.71;102172.78;5055090;28;20049;-50
2023/05/23 11:11:53;;;;;;;6.50;1.83;;;;;;;30.44;40.26;102184.00;5056640;28;20029;-54
2023/05/23 11:14:36;;;;;;;8.68;2.08;;;;;;;32.64;37.07;102180.38;5056178;28;20053;-54
2023/05/23 11:17:11;;;;;;;7.95;2.00;;;;;;;33.28;36.18;102192.31;5053816;28;20029;-55
2023/05/23 11:19:54;;;;;;;11.35;2.70;;;;;;;34.80;31.46;102198.63;5054596;28;20044;-54
2023/05/23 11:22:20;;;;;;;14.82;2.20;;;;;;;34.25;31.44;102192.63;5057000;28;20033;-53